If you wish to contribute or participate in the discussions about articles you are invited to join SKYbrary as a registered user

 Actions

Angel S Adami Airport

From SKYbrary Wiki

SUAA
Airport
ICAO: SUAA
Summary
Name Angel S Adami Airport
Region
Territory Uruguay UY.gif
Location , Montevideo
Serving Montevideo
Elevation 53.035 m
174 ft
174 ft53.035 m
Type medium airport
Coordinates 34° 47' 21.15" S, 56° 15' 52.93" W
Runways
Designator Length Width Surface ROPS
18/36 1250 m4,101.05 ft
23 m75.459 ft
CON /


METAR
Observation SUAA 131400Z VRB02KT 8000 -TSRA FEW040CB OVC083 20/09 Q1016
Station Melilla
Date/Time 13 December 2018 14:00:00
Wind direction °
Wind speed 02 kts
Lowest cloud amount few clouds
Temperature 20°C
Dew point 9°C
Humidity 49%
QNH 1016 hPa
Weather condition n/a